sensor_id;sensor_type;location;lat;lon;timestamp;P1;durP1;ratioP1;P2;durP2;ratioP2
77775;SDS011;66965;43.328;6.668;2023-04-16T00:00:47;0.40;;;0.20;;
77775;SDS011;66965;43.328;6.668;2023-04-16T00:03:33;0.52;;;0.30;;
77775;SDS011;66965;43.328;6.668;2023-04-16T00:06:19;0.32;;;0.13;;
77775;SDS011;66965;43.328;6.668;2023-04-16T00:09:05;1.17;;;0.38;;
77775;SDS011;66965;43.328;6.668;2023-04-16T00:11:51;0.47;;;0.17;;
77775;SDS011;66965;43.328;6.668;2023-04-16T00:14:37;0.20;;;0.10;;
77775;SDS011;66965;43.328;6.668;2023-04-16T00:17:23;0.77;;;0.20;;
77775;SDS011;66965;43.328;6.668;2023-04-16T00:20:09;0.45;;;0.15;;
77775;SDS011;66965;43.328;6.668;2023-04-16T00:22:55;0.10;;;0.10;;
77775;SDS011;66965;43.328;6.668;2023-04-16T00:25:41;0.95;;;0.20;;
77775;SDS011;66965;43.328;6.668;2023-04-16T00:28:27;0.55;;;0.30;;
77775;SDS011;66965;43.328;6.668;2023-04-16T00:31:13;0.95;;;0.30;;
77775;SDS011;66965;43.328;6.668;2023-04-16T00:34:00;0.77;;;0.10;;
77775;SDS011;66965;43.328;6.668;2023-04-16T00:36:46;0.20;;;0.10;;
77775;SDS011;66965;43.328;6.668;2023-04-16T00:39:32;0.43;;;0.40;;
77775;SDS011;66965;43.328;6.668;2023-04-16T00:42:18;0.70;;;0.20;;
77775;SDS011;66965;43.328;6.668;2023-04-16T00:45:04;0.20;;;0.20;;
77775;SDS011;66965;43.328;6.668;2023-04-16T00:47:50;0.52;;;0.10;;
77775;SDS011;66965;43.328;6.668;2023-04-16T00:50:36;0.40;;;0.30;;
77775;SDS011;66965;43.328;6.668;2023-04-16T00:53:23;0.25;;;0.10;;
77775;SDS011;66965;43.328;6.668;2023-04-16T00:56:10;0.63;;;0.20;;
77775;SDS011;66965;43.328;6.668;2023-04-16T00:58:57;0.13;;;0.10;;
77775;SDS011;66965;43.328;6.668;2023-04-16T01:01:44;0.47;;;0.20;;
77775;SDS011;66965;43.328;6.668;2023-04-16T01:04:30;0.47;;;0.13;;
77775;SDS011;66965;43.328;6.668;2023-04-16T01:07:16;1.08;;;0.20;;
77775;SDS011;66965;43.328;6.668;2023-04-16T01:10:02;0.90;;;0.30;;
77775;SDS011;66965;43.328;6.668;2023-04-16T01:12:48;1.25;;;0.28;;
77775;SDS011;66965;43.328;6.668;2023-04-16T01:15:34;0.45;;;0.10;;
77775;SDS011;66965;43.328;6.668;2023-04-16T01:18:20;0.35;;;0.17;;
77775;SDS011;66965;43.328;6.668;2023-04-16T01:21:07;0.20;;;0.10;;
77775;SDS011;66965;43.328;6.668;2023-04-16T01:23:53;1.15;;;0.30;;
77775;SDS011;66965;43.328;6.668;2023-04-16T01:26:38;0.30;;;0.10;;
77775;SDS011;66965;43.328;6.668;2023-04-16T01:29:25;0.10;;;0.10;;
77775;SDS011;66965;43.328;6.668;2023-04-16T01:32:11;0.38;;;0.20;;
77775;SDS011;66965;43.328;6.668;2023-04-16T01:34:57;0.28;;;0.10;;
77775;SDS011;66965;43.328;6.668;2023-04-16T01:37:43;0.05;;;0.05;;
77775;SDS011;66965;43.328;6.668;2023-04-16T01:40:29;1.27;;;0.30;;
77775;SDS011;66965;43.328;6.668;2023-04-16T01:43:19;0.38;;;0.10;;
77775;SDS011;66965;43.328;6.668;2023-04-16T01:46:11;0.80;;;0.20;;
77775;SDS011;66965;43.328;6.668;2023-04-16T01:48:57;1.65;;;0.30;;
77775;SDS011;66965;43.328;6.668;2023-04-16T01:51:44;0.43;;;0.30;;
77775;SDS011;66965;43.328;6.668;2023-04-16T01:54:32;0.63;;;0.25;;
77775;SDS011;66965;43.328;6.668;2023-04-16T01:57:18;0.10;;;0.10;;
77775;SDS011;66965;43.328;6.668;2023-04-16T02:00:04;0.65;;;0.17;;
77775;SDS011;66965;43.328;6.668;2023-04-16T02:02:50;0.32;;;0.10;;
77775;SDS011;66965;43.328;6.668;2023-04-16T02:05:36;0.65;;;0.10;;
77775;SDS011;66965;43.328;6.668;2023-04-16T02:08:22;0.20;;;0.10;;
77775;SDS011;66965;43.328;6.668;2023-04-16T02:11:08;0.25;;;0.10;;
77775;SDS011;66965;43.328;6.668;2023-04-16T02:13:54;0.10;;;0.10;;
77775;SDS011;66965;43.328;6.668;2023-04-16T02:16:40;0.00;;;0.00;;
77775;SDS011;66965;43.328;6.668;2023-04-16T02:19:26;0.52;;;0.17;;
77775;SDS011;66965;43.328;6.668;2023-04-16T02:22:12;0.20;;;0.15;;
77775;SDS011;66965;43.328;6.668;2023-04-16T02:24:58;1.67;;;0.57;;
77775;SDS011;66965;43.328;6.668;2023-04-16T02:27:45;0.00;;;0.00;;
77775;SDS011;66965;43.328;6.668;2023-04-16T02:30:35;0.45;;;0.20;;
77775;SDS011;66965;43.328;6.668;2023-04-16T02:33:21;0.00;;;0.00;;
77775;SDS011;66965;43.328;6.668;2023-04-16T02:36:07;0.68;;;0.20;;
77775;SDS011;66965;43.328;6.668;2023-04-16T02:38:53;0.30;;;0.17;;
77775;SDS011;66965;43.328;6.668;2023-04-16T02:41:39;0.85;;;0.40;;
77775;SDS011;66965;43.328;6.668;2023-04-16T02:44:26;0.00;;;0.00;;
77775;SDS011;66965;43.328;6.668;2023-04-16T02:47:12;0.75;;;0.20;;
77775;SDS011;66965;43.328;6.668;2023-04-16T02:49:58;0.13;;;0.05;;
77775;SDS011;66965;43.328;6.668;2023-04-16T02:52:44;0.10;;;0.10;;
77775;SDS011;66965;43.328;6.668;2023-04-16T02:55:31;0.25;;;0.10;;
77775;SDS011;66965;43.328;6.668;2023-04-16T02:58:18;0.52;;;0.30;;
77775;SDS011;66965;43.328;6.668;2023-04-16T03:01:05;0.52;;;0.20;;
77775;SDS011;66965;43.328;6.668;2023-04-16T03:03:52;0.03;;;0.03;;
77775;SDS011;66965;43.328;6.668;2023-04-16T03:06:38;0.00;;;0.00;;
77775;SDS011;66965;43.328;6.668;2023-04-16T03:09:24;0.25;;;0.10;;
77775;SDS011;66965;43.328;6.668;2023-04-16T03:12:10;0.43;;;0.15;;
77775;SDS011;66965;43.328;6.668;2023-04-16T03:14:56;0.38;;;0.15;;
77775;SDS011;66965;43.328;6.668;2023-04-16T03:17:42;0.93;;;0.40;;
77775;SDS011;66965;43.328;6.668;2023-04-16T03:20:28;0.60;;;0.17;;
77775;SDS011;66965;43.328;6.668;2023-04-16T03:26:03;0.50;;;0.10;;
77775;SDS011;66965;43.328;6.668;2023-04-16T03:28:49;0.20;;;0.20;;
77775;SDS011;66965;43.328;6.668;2023-04-16T03:31:35;0.47;;;0.13;;
77775;SDS011;66965;43.328;6.668;2023-04-16T03:34:21;0.57;;;0.20;;
77775;SDS011;66965;43.328;6.668;2023-04-16T03:37:07;1.42;;;0.20;;
77775;SDS011;66965;43.328;6.668;2023-04-16T03:39:53;0.35;;;0.20;;
77775;SDS011;66965;43.328;6.668;2023-04-16T03:42:39;0.25;;;0.10;;
77775;SDS011;66965;43.328;6.668;2023-04-16T03:45:25;0.98;;;0.15;;
77775;SDS011;66965;43.328;6.668;2023-04-16T03:48:11;0.20;;;0.10;;
77775;SDS011;66965;43.328;6.668;2023-04-16T03:50:57;0.60;;;0.22;;
77775;SDS011;66965;43.328;6.668;2023-04-16T03:53:43;0.40;;;0.17;;
77775;SDS011;66965;43.328;6.668;2023-04-16T03:56:29;0.73;;;0.25;;
77775;SDS011;66965;43.328;6.668;2023-04-16T03:59:16;0.22;;;0.13;;
77775;SDS011;66965;43.328;6.668;2023-04-16T04:02:02;0.88;;;0.32;;
77775;SDS011;66965;43.328;6.668;2023-04-16T04:04:48;0.25;;;0.13;;
77775;SDS011;66965;43.328;6.668;2023-04-16T04:07:34;0.30;;;0.10;;
77775;SDS011;66965;43.328;6.668;2023-04-16T04:10:20;2.08;;;0.22;;
77775;SDS011;66965;43.328;6.668;2023-04-16T04:13:06;0.38;;;0.30;;
77775;SDS011;66965;43.328;6.668;2023-04-16T04:15:52;0.60;;;0.30;;
77775;SDS011;66965;43.328;6.668;2023-04-16T04:18:38;0.65;;;0.17;;
77775;SDS011;66965;43.328;6.668;2023-04-16T04:21:25;0.90;;;0.40;;
77775;SDS011;66965;43.328;6.668;2023-04-16T04:24:11;0.88;;;0.30;;
77775;SDS011;66965;43.328;6.668;2023-04-16T04:26:57;0.30;;;0.17;;
77775;SDS011;66965;43.328;6.668;2023-04-16T04:29:43;0.90;;;0.35;;
77775;SDS011;66965;43.328;6.668;2023-04-16T04:32:30;1.10;;;0.65;;
77775;SDS011;66965;43.328;6.668;2023-04-16T04:35:15;1.38;;;0.50;;
77775;SDS011;66965;43.328;6.668;2023-04-16T04:38:01;0.15;;;0.03;;
77775;SDS011;66965;43.328;6.668;2023-04-16T04:40:51;0.70;;;0.20;;
77775;SDS011;66965;43.328;6.668;2023-04-16T04:43:37;0.60;;;0.25;;
77775;SDS011;66965;43.328;6.668;2023-04-16T04:46:23;0.98;;;0.40;;
77775;SDS011;66965;43.328;6.668;2023-04-16T04:49:09;0.15;;;0.10;;
77775;SDS011;66965;43.328;6.668;2023-04-16T04:51:55;0.52;;;0.25;;
77775;SDS011;66965;43.328;6.668;2023-04-16T04:54:41;0.57;;;0.40;;
77775;SDS011;66965;43.328;6.668;2023-04-16T04:57:27;1.27;;;0.30;;
77775;SDS011;66965;43.328;6.668;2023-04-16T05:00:14;0.65;;;0.17;;
77775;SDS011;66965;43.328;6.668;2023-04-16T05:03:01;0.88;;;0.30;;
77775;SDS011;66965;43.328;6.668;2023-04-16T05:05:47;0.00;;;0.00;;
77775;SDS011;66965;43.328;6.668;2023-04-16T05:08:33;1.10;;;0.30;;
77775;SDS011;66965;43.328;6.668;2023-04-16T05:11:19;0.75;;;0.40;;
77775;SDS011;66965;43.328;6.668;2023-04-16T05:14:05;0.75;;;0.40;;
77775;SDS011;66965;43.328;6.668;2023-04-16T05:16:51;0.88;;;0.30;;
77775;SDS011;66965;43.328;6.668;2023-04-16T05:19:37;0.32;;;0.20;;
77775;SDS011;66965;43.328;6.668;2023-04-16T05:22:24;0.82;;;0.30;;
77775;SDS011;66965;43.328;6.668;2023-04-16T05:25:10;0.40;;;0.20;;
77775;SDS011;66965;43.328;6.668;2023-04-16T05:27:56;1.40;;;0.52;;
77775;SDS011;66965;43.328;6.668;2023-04-16T05:30:42;0.55;;;0.40;;
77775;SDS011;66965;43.328;6.668;2023-04-16T05:33:28;0.22;;;0.20;;
77775;SDS011;66965;43.328;6.668;2023-04-16T05:36:14;0.68;;;0.30;;
77775;SDS011;66965;43.328;6.668;2023-04-16T05:38:59;1.08;;;0.38;;
77775;SDS011;66965;43.328;6.668;2023-04-16T05:41:46;0.55;;;0.20;;
77775;SDS011;66965;43.328;6.668;2023-04-16T05:44:32;0.90;;;0.47;;
77775;SDS011;66965;43.328;6.668;2023-04-16T05:47:18;0.63;;;0.28;;
77775;SDS011;66965;43.328;6.668;2023-04-16T05:50:04;0.93;;;0.40;;
77775;SDS011;66965;43.328;6.668;2023-04-16T05:52:50;1.15;;;0.45;;
77775;SDS011;66965;43.328;6.668;2023-04-16T05:55:38;2.85;;;0.60;;
77775;SDS011;66965;43.328;6.668;2023-04-16T05:58:24;9.13;;;1.00;;
77775;SDS011;66965;43.328;6.668;2023-04-16T06:01:10;1.23;;;0.40;;
77775;SDS011;66965;43.328;6.668;2023-04-16T06:03:56;3.15;;;0.50;;
77775;SDS011;66965;43.328;6.668;2023-04-16T06:06:42;3.85;;;0.65;;
77775;SDS011;66965;43.328;6.668;2023-04-16T06:09:28;3.45;;;0.65;;
77775;SDS011;66965;43.328;6.668;2023-04-16T06:12:14;0.80;;;0.32;;
77775;SDS011;66965;43.328;6.668;2023-04-16T06:15:00;0.40;;;0.10;;
77775;SDS011;66965;43.328;6.668;2023-04-16T06:17:46;5.82;;;1.02;;
77775;SDS011;66965;43.328;6.668;2023-04-16T06:20:32;1.38;;;0.32;;
77775;SDS011;66965;43.328;6.668;2023-04-16T06:23:18;1.55;;;0.35;;
77775;SDS011;66965;43.328;6.668;2023-04-16T06:26:04;0.45;;;0.28;;
77775;SDS011;66965;43.328;6.668;2023-04-16T06:28:50;1.17;;;0.50;;
77775;SDS011;66965;43.328;6.668;2023-04-16T06:31:36;0.65;;;0.22;;
77775;SDS011;66965;43.328;6.668;2023-04-16T06:34:22;0.90;;;0.40;;
77775;SDS011;66965;43.328;6.668;2023-04-16T06:37:08;0.85;;;0.30;;
77775;SDS011;66965;43.328;6.668;2023-04-16T06:39:55;0.90;;;0.40;;
77775;SDS011;66965;43.328;6.668;2023-04-16T06:42:41;0.55;;;0.20;;
77775;SDS011;66965;43.328;6.668;2023-04-16T06:45:27;0.45;;;0.20;;
77775;SDS011;66965;43.328;6.668;2023-04-16T06:48:14;2.22;;;0.57;;
77775;SDS011;66965;43.328;6.668;2023-04-16T06:50:59;1.00;;;0.38;;
77775;SDS011;66965;43.328;6.668;2023-04-16T06:53:46;0.93;;;0.75;;
77775;SDS011;66965;43.328;6.668;2023-04-16T06:56:32;0.55;;;0.50;;
77775;SDS011;66965;43.328;6.668;2023-04-16T06:59:18;1.35;;;0.47;;
77775;SDS011;66965;43.328;6.668;2023-04-16T07:02:04;2.03;;;0.40;;
77775;SDS011;66965;43.328;6.668;2023-04-16T07:04:50;0.75;;;0.43;;
77775;SDS011;66965;43.328;6.668;2023-04-16T07:07:36;0.13;;;0.10;;
77775;SDS011;66965;43.328;6.668;2023-04-16T07:10:23;1.70;;;0.50;;
77775;SDS011;66965;43.328;6.668;2023-04-16T07:13:09;0.90;;;0.40;;
77775;SDS011;66965;43.328;6.668;2023-04-16T07:15:55;2.72;;;0.30;;
77775;SDS011;66965;43.328;6.668;2023-04-16T07:18:41;2.60;;;0.55;;
77775;SDS011;66965;43.328;6.668;2023-04-16T07:21:27;0.55;;;0.38;;
77775;SDS011;66965;43.328;6.668;2023-04-16T07:24:15;9.75;;;1.15;;
77775;SDS011;66965;43.328;6.668;2023-04-16T07:27:01;9.32;;;0.95;;
77775;SDS011;66965;43.328;6.668;2023-04-16T07:29:47;2.28;;;0.50;;
77775;SDS011;66965;43.328;6.668;2023-04-16T07:32:33;0.85;;;0.30;;
77775;SDS011;66965;43.328;6.668;2023-04-16T07:35:19;1.27;;;0.55;;
77775;SDS011;66965;43.328;6.668;2023-04-16T08:13:29;5.78;;;0.80;;
77775;SDS011;66965;43.328;6.668;2023-04-16T08:18:20;2.00;;;0.60;;
77775;SDS011;66965;43.328;6.668;2023-04-16T08:23:10;5.40;;;0.65;;
77775;SDS011;66965;43.328;6.668;2023-04-16T08:25:35;8.03;;;2.03;;
77775;SDS011;66965;43.328;6.668;2023-04-16T08:28:00;4.17;;;0.70;;
77775;SDS011;66965;43.328;6.668;2023-04-16T08:32:51;6.27;;;1.20;;
77775;SDS011;66965;43.328;6.668;2023-04-16T08:37:41;2.80;;;0.97;;
77775;SDS011;66965;43.328;6.668;2023-04-16T08:40:07;2.10;;;0.60;;
77775;SDS011;66965;43.328;6.668;2023-04-16T08:42:34;2.67;;;0.50;;
77775;SDS011;66965;43.328;6.668;2023-04-16T08:49:58;1.03;;;0.33;;
77775;SDS011;66965;43.328;6.668;2023-04-16T08:52:24;3.78;;;1.00;;
77775;SDS011;66965;43.328;6.668;2023-04-16T08:55:05;4.53;;;1.00;;
77775;SDS011;66965;43.328;6.668;2023-04-16T08:57:46;3.65;;;0.68;;
77775;SDS011;66965;43.328;6.668;2023-04-16T09:00:12;7.88;;;0.85;;
77775;SDS011;66965;43.328;6.668;2023-04-16T09:02:38;9.20;;;1.20;;
77775;SDS011;66965;43.328;6.668;2023-04-16T09:05:04;3.55;;;0.93;;
77775;SDS011;66965;43.328;6.668;2023-04-16T09:07:31;1.58;;;0.40;;
77775;SDS011;66965;43.328;6.668;2023-04-16T09:09:56;2.33;;;0.53;;
77775;SDS011;66965;43.328;6.668;2023-04-16T09:12:23;2.58;;;0.70;;
77775;SDS011;66965;43.328;6.668;2023-04-16T09:14:49;1.77;;;0.25;;
77775;SDS011;66965;43.328;6.668;2023-04-16T09:19:40;3.45;;;1.05;;
77775;SDS011;66965;43.328;6.668;2023-04-16T09:24:31;2.78;;;0.68;;
77775;SDS011;66965;43.328;6.668;2023-04-16T09:29:34;3.40;;;0.60;;
77775;SDS011;66965;43.328;6.668;2023-04-16T09:32:06;3.00;;;0.60;;
77775;SDS011;66965;43.328;6.668;2023-04-16T09:34:32;1.00;;;0.50;;
77775;SDS011;66965;43.328;6.668;2023-04-16T09:37:13;1.65;;;0.40;;
77775;SDS011;66965;43.328;6.668;2023-04-16T09:39:40;1.55;;;0.55;;
77775;SDS011;66965;43.328;6.668;2023-04-16T09:42:05;1.90;;;0.60;;
77775;SDS011;66965;43.328;6.668;2023-04-16T09:46:56;3.50;;;1.00;;
77775;SDS011;66965;43.328;6.668;2023-04-16T09:49:29;2.53;;;0.65;;
77775;SDS011;66965;43.328;6.668;2023-04-16T09:51:57;4.05;;;0.57;;
77775;SDS011;66965;43.328;6.668;2023-04-16T09:54:24;2.22;;;0.70;;
77775;SDS011;66965;43.328;6.668;2023-04-16T09:56:50;1.33;;;0.43;;
77775;SDS011;66965;43.328;6.668;2023-04-16T09:59:18;2.50;;;0.40;;
77775;SDS011;66965;43.328;6.668;2023-04-16T10:01:44;1.00;;;0.43;;
77775;SDS011;66965;43.328;6.668;2023-04-16T10:04:13;0.90;;;0.50;;
77775;SDS011;66965;43.328;6.668;2023-04-16T10:06:38;1.67;;;0.50;;
77775;SDS011;66965;43.328;6.668;2023-04-16T10:42:07;2.53;;;0.88;;
77775;SDS011;66965;43.328;6.668;2023-04-16T10:44:33;2.40;;;0.70;;
77775;SDS011;66965;43.328;6.668;2023-04-16T10:49:23;1.85;;;0.70;;
77775;SDS011;66965;43.328;6.668;2023-04-16T10:56:39;3.85;;;0.50;;
77775;SDS011;66965;43.328;6.668;2023-04-16T10:59:05;1.77;;;0.40;;
77775;SDS011;66965;43.328;6.668;2023-04-16T11:04:25;1.07;;;0.50;;
77775;SDS011;66965;43.328;6.668;2023-04-16T11:12:23;2.60;;;0.30;;
77775;SDS011;66965;43.328;6.668;2023-04-16T11:14:49;2.47;;;0.63;;
77775;SDS011;66965;43.328;6.668;2023-04-16T11:17:15;2.47;;;0.50;;
77775;SDS011;66965;43.328;6.668;2023-04-16T11:22:05;1.23;;;0.50;;
77775;SDS011;66965;43.328;6.668;2023-04-16T11:26:56;2.65;;;0.65;;
77775;SDS011;66965;43.328;6.668;2023-04-16T11:31:53;4.75;;;0.60;;
77775;SDS011;66965;43.328;6.668;2023-04-16T11:36:48;3.15;;;0.55;;
77775;SDS011;66965;43.328;6.668;2023-04-16T11:39:13;3.05;;;0.80;;
77775;SDS011;66965;43.328;6.668;2023-04-16T11:41:42;3.90;;;0.85;;
77775;SDS011;66965;43.328;6.668;2023-04-16T11:46:42;2.00;;;0.60;;
77775;SDS011;66965;43.328;6.668;2023-04-16T11:51:37;1.97;;;0.60;;
77775;SDS011;66965;43.328;6.668;2023-04-16T11:54:03;5.60;;;0.75;;
77775;SDS011;66965;43.328;6.668;2023-04-16T12:01:38;2.53;;;0.88;;
77775;SDS011;66965;43.328;6.668;2023-04-16T12:04:03;2.10;;;0.65;;
77775;SDS011;66965;43.328;6.668;2023-04-16T12:06:29;1.07;;;0.60;;
77775;SDS011;66965;43.328;6.668;2023-04-16T12:08:56;3.10;;;0.70;;
77775;SDS011;66965;43.328;6.668;2023-04-16T12:16:30;5.97;;;1.10;;
77775;SDS011;66965;43.328;6.668;2023-04-16T12:18:58;4.80;;;0.67;;
77775;SDS011;66965;43.328;6.668;2023-04-16T12:21:34;3.50;;;0.70;;
77775;SDS011;66965;43.328;6.668;2023-04-16T12:23:59;6.13;;;1.02;;
77775;SDS011;66965;43.328;6.668;2023-04-16T12:28:50;3.95;;;1.00;;
77775;SDS011;66965;43.328;6.668;2023-04-16T12:31:15;4.37;;;1.30;;
77775;SDS011;66965;43.328;6.668;2023-04-16T12:36:18;3.17;;;0.70;;
77775;SDS011;66965;43.328;6.668;2023-04-16T12:38:44;2.22;;;0.70;;
77775;SDS011;66965;43.328;6.668;2023-04-16T12:43:35;5.20;;;1.23;;
77775;SDS011;66965;43.328;6.668;2023-04-16T12:48:25;6.45;;;1.30;;
77775;SDS011;66965;43.328;6.668;2023-04-16T12:50:52;4.97;;;1.33;;
77775;SDS011;66965;43.328;6.668;2023-04-16T12:53:17;2.65;;;0.98;;
77775;SDS011;66965;43.328;6.668;2023-04-16T12:58:09;4.22;;;1.42;;
77775;SDS011;66965;43.328;6.668;2023-04-16T13:00:34;5.23;;;1.10;;
77775;SDS011;66965;43.328;6.668;2023-04-16T13:02:59;4.07;;;0.90;;
77775;SDS011;66965;43.328;6.668;2023-04-16T13:05:25;6.07;;;1.30;;
77775;SDS011;66965;43.328;6.668;2023-04-16T13:07:50;4.47;;;1.17;;
77775;SDS011;66965;43.328;6.668;2023-04-16T13:10:15;5.80;;;1.07;;
77775;SDS011;66965;43.328;6.668;2023-04-16T13:12:41;5.00;;;1.30;;
77775;SDS011;66965;43.328;6.668;2023-04-16T13:17:31;3.42;;;1.00;;
77775;SDS011;66965;43.328;6.668;2023-04-16T13:22:22;2.92;;;1.10;;
77775;SDS011;66965;43.328;6.668;2023-04-16T13:27:13;3.35;;;0.90;;
77775;SDS011;66965;43.328;6.668;2023-04-16T13:29:40;7.53;;;1.17;;
77775;SDS011;66965;43.328;6.668;2023-04-16T13:36:07;6.47;;;1.73;;
77775;SDS011;66965;43.328;6.668;2023-04-16T13:42:52;5.03;;;2.15;;
77775;SDS011;66965;43.328;6.668;2023-04-16T13:47:44;5.55;;;1.42;;
77775;SDS011;66965;43.328;6.668;2023-04-16T14:04:18;3.63;;;0.82;;
77775;SDS011;66965;43.328;6.668;2023-04-16T14:06:46;6.07;;;1.23;;
77775;SDS011;66965;43.328;6.668;2023-04-16T14:11:36;3.10;;;0.77;;
77775;SDS011;66965;43.328;6.668;2023-04-16T14:16:26;5.20;;;1.10;;
77775;SDS011;66965;43.328;6.668;2023-04-16T14:21:17;4.03;;;0.80;;
77775;SDS011;66965;43.328;6.668;2023-04-16T14:26:07;4.00;;;0.90;;
77775;SDS011;66965;43.328;6.668;2023-04-16T14:30:59;1.85;;;0.95;;
77775;SDS011;66965;43.328;6.668;2023-04-16T14:35:50;2.73;;;0.67;;
77775;SDS011;66965;43.328;6.668;2023-04-16T14:40:41;8.65;;;1.20;;
77775;SDS011;66965;43.328;6.668;2023-04-16T14:45:31;11.43;;;1.10;;
77775;SDS011;66965;43.328;6.668;2023-04-16T14:50:22;3.77;;;0.93;;
77775;SDS011;66965;43.328;6.668;2023-04-16T14:55:12;4.47;;;0.73;;
77775;SDS011;66965;43.328;6.668;2023-04-16T15:00:03;3.83;;;0.90;;
77775;SDS011;66965;43.328;6.668;2023-04-16T15:02:32;1.65;;;0.80;;
77775;SDS011;66965;43.328;6.668;2023-04-16T15:07:22;4.18;;;1.02;;
77775;SDS011;66965;43.328;6.668;2023-04-16T15:09:50;5.00;;;0.88;;
77775;SDS011;66965;43.328;6.668;2023-04-16T15:14:41;2.05;;;0.57;;
77775;SDS011;66965;43.328;6.668;2023-04-16T15:19:32;2.38;;;0.82;;
77775;SDS011;66965;43.328;6.668;2023-04-16T15:24:22;1.90;;;0.60;;
77775;SDS011;66965;43.328;6.668;2023-04-16T15:26:48;2.63;;;0.70;;
77775;SDS011;66965;43.328;6.668;2023-04-16T15:29:13;1.47;;;0.60;;
77775;SDS011;66965;43.328;6.668;2023-04-16T15:31:39;2.83;;;0.82;;
77775;SDS011;66965;43.328;6.668;2023-04-16T15:34:05;2.50;;;1.13;;
77775;SDS011;66965;43.328;6.668;2023-04-16T15:36:30;1.70;;;0.60;;
77775;SDS011;66965;43.328;6.668;2023-04-16T15:38:55;2.15;;;0.70;;
77775;SDS011;66965;43.328;6.668;2023-04-16T15:41:21;4.80;;;0.87;;
77775;SDS011;66965;43.328;6.668;2023-04-16T15:43:46;2.75;;;0.77;;
77775;SDS011;66965;43.328;6.668;2023-04-16T15:46:11;0.40;;;0.40;;
77775;SDS011;66965;43.328;6.668;2023-04-16T15:48:36;1.77;;;0.87;;
77775;SDS011;66965;43.328;6.668;2023-04-16T15:51:02;3.00;;;0.80;;
77775;SDS011;66965;43.328;6.668;2023-04-16T15:53:27;3.60;;;0.90;;
77775;SDS011;66965;43.328;6.668;2023-04-16T15:55:52;2.93;;;0.80;;
77775;SDS011;66965;43.328;6.668;2023-04-16T15:58:18;1.67;;;0.50;;
77775;SDS011;66965;43.328;6.668;2023-04-16T16:00:45;1.70;;;0.70;;
77775;SDS011;66965;43.328;6.668;2023-04-16T16:03:15;4.13;;;0.90;;
77775;SDS011;66965;43.328;6.668;2023-04-16T16:05:41;3.70;;;0.70;;
77775;SDS011;66965;43.328;6.668;2023-04-16T16:08:07;1.63;;;0.70;;
77775;SDS011;66965;43.328;6.668;2023-04-16T16:10:32;2.53;;;0.70;;
77775;SDS011;66965;43.328;6.668;2023-04-16T16:12:58;1.73;;;1.00;;
77775;SDS011;66965;43.328;6.668;2023-04-16T16:15:29;2.03;;;0.73;;
77775;SDS011;66965;43.328;6.668;2023-04-16T16:17:54;3.70;;;0.87;;
77775;SDS011;66965;43.328;6.668;2023-04-16T16:20:21;1.65;;;0.50;;
77775;SDS011;66965;43.328;6.668;2023-04-16T16:22:47;2.50;;;0.57;;
77775;SDS011;66965;43.328;6.668;2023-04-16T16:25:13;1.77;;;0.60;;
77775;SDS011;66965;43.328;6.668;2023-04-16T16:27:38;2.57;;;0.87;;
77775;SDS011;66965;43.328;6.668;2023-04-16T16:30:04;3.10;;;0.93;;
77775;SDS011;66965;43.328;6.668;2023-04-16T16:32:31;3.20;;;0.75;;
77775;SDS011;66965;43.328;6.668;2023-04-16T16:34:56;2.87;;;0.83;;
77775;SDS011;66965;43.328;6.668;2023-04-16T16:37:21;4.47;;;1.20;;
77775;SDS011;66965;43.328;6.668;2023-04-16T16:39:47;8.97;;;1.80;;
77775;SDS011;66965;43.328;6.668;2023-04-16T16:42:12;8.20;;;2.07;;
77775;SDS011;66965;43.328;6.668;2023-04-16T16:44:40;7.60;;;2.83;;
77775;SDS011;66965;43.328;6.668;2023-04-16T16:47:05;9.63;;;2.10;;
77775;SDS011;66965;43.328;6.668;2023-04-16T16:49:31;5.82;;;2.20;;
77775;SDS011;66965;43.328;6.668;2023-04-16T16:51:56;11.40;;;2.23;;
77775;SDS011;66965;43.328;6.668;2023-04-16T16:54:21;9.43;;;2.42;;
77775;SDS011;66965;43.328;6.668;2023-04-16T16:56:47;8.93;;;2.67;;
77775;SDS011;66965;43.328;6.668;2023-04-16T16:59:12;11.35;;;2.88;;
77775;SDS011;66965;43.328;6.668;2023-04-16T17:01:37;7.43;;;2.43;;
77775;SDS011;66965;43.328;6.668;2023-04-16T17:04:03;8.80;;;2.53;;
77775;SDS011;66965;43.328;6.668;2023-04-16T17:06:28;13.57;;;2.75;;
77775;SDS011;66965;43.328;6.668;2023-04-16T17:08:53;9.70;;;2.43;;
77775;SDS011;66965;43.328;6.668;2023-04-16T17:11:19;12.63;;;2.47;;
77775;SDS011;66965;43.328;6.668;2023-04-16T17:13:44;12.83;;;2.87;;
77775;SDS011;66965;43.328;6.668;2023-04-16T17:16:10;11.35;;;2.90;;
77775;SDS011;66965;43.328;6.668;2023-04-16T17:18:37;9.25;;;2.72;;
77775;SDS011;66965;43.328;6.668;2023-04-16T17:21:02;8.07;;;4.00;;
77775;SDS011;66965;43.328;6.668;2023-04-16T17:23:27;11.93;;;3.20;;
77775;SDS011;66965;43.328;6.668;2023-04-16T17:25:52;6.93;;;2.17;;
77775;SDS011;66965;43.328;6.668;2023-04-16T17:28:18;12.20;;;3.43;;
77775;SDS011;66965;43.328;6.668;2023-04-16T17:30:44;11.85;;;2.83;;
77775;SDS011;66965;43.328;6.668;2023-04-16T17:33:10;7.57;;;2.55;;
77775;SDS011;66965;43.328;6.668;2023-04-16T17:35:35;19.30;;;4.03;;
77775;SDS011;66965;43.328;6.668;2023-04-16T17:38:00;9.10;;;2.90;;
77775;SDS011;66965;43.328;6.668;2023-04-16T17:40:26;10.73;;;2.90;;
77775;SDS011;66965;43.328;6.668;2023-04-16T17:42:51;8.67;;;2.10;;
77775;SDS011;66965;43.328;6.668;2023-04-16T17:45:16;8.37;;;2.80;;
77775;SDS011;66965;43.328;6.668;2023-04-16T17:47:42;12.40;;;2.83;;
77775;SDS011;66965;43.328;6.668;2023-04-16T17:50:08;12.63;;;3.75;;
77775;SDS011;66965;43.328;6.668;2023-04-16T17:52:33;9.25;;;2.58;;
77775;SDS011;66965;43.328;6.668;2023-04-16T17:54:59;10.50;;;3.07;;
77775;SDS011;66965;43.328;6.668;2023-04-16T17:57:28;10.88;;;2.53;;
77775;SDS011;66965;43.328;6.668;2023-04-16T17:59:54;11.55;;;2.80;;
77775;SDS011;66965;43.328;6.668;2023-04-16T18:02:19;8.38;;;2.33;;
77775;SDS011;66965;43.328;6.668;2023-04-16T18:04:44;12.43;;;2.50;;
77775;SDS011;66965;43.328;6.668;2023-04-16T18:07:10;10.38;;;2.80;;
77775;SDS011;66965;43.328;6.668;2023-04-16T18:09:36;7.07;;;2.58;;
77775;SDS011;66965;43.328;6.668;2023-04-16T18:12:01;11.73;;;2.77;;
77775;SDS011;66965;43.328;6.668;2023-04-16T18:14:27;9.07;;;3.80;;
77775;SDS011;66965;43.328;6.668;2023-04-16T18:16:52;11.82;;;2.83;;
77775;SDS011;66965;43.328;6.668;2023-04-16T18:19:17;5.83;;;2.60;;
77775;SDS011;66965;43.328;6.668;2023-04-16T18:21:43;10.00;;;2.53;;
77775;SDS011;66965;43.328;6.668;2023-04-16T18:24:08;12.82;;;2.97;;
77775;SDS011;66965;43.328;6.668;2023-04-16T18:26:34;11.40;;;2.77;;
77775;SDS011;66965;43.328;6.668;2023-04-16T18:28:59;8.85;;;2.28;;
77775;SDS011;66965;43.328;6.668;2023-04-16T18:31:25;10.23;;;2.40;;
77775;SDS011;66965;43.328;6.668;2023-04-16T18:33:50;12.10;;;2.60;;
77775;SDS011;66965;43.328;6.668;2023-04-16T18:36:15;12.90;;;2.67;;
77775;SDS011;66965;43.328;6.668;2023-04-16T18:38:41;15.15;;;2.78;;
77775;SDS011;66965;43.328;6.668;2023-04-16T18:41:14;7.63;;;2.60;;
77775;SDS011;66965;43.328;6.668;2023-04-16T18:43:39;10.77;;;2.50;;
77775;SDS011;66965;43.328;6.668;2023-04-16T18:46:05;12.20;;;3.47;;
77775;SDS011;66965;43.328;6.668;2023-04-16T18:48:30;8.33;;;2.60;;
77775;SDS011;66965;43.328;6.668;2023-04-16T18:50:55;9.33;;;3.07;;
77775;SDS011;66965;43.328;6.668;2023-04-16T18:55:51;9.48;;;2.80;;
77775;SDS011;66965;43.328;6.668;2023-04-16T18:58:16;8.90;;;2.85;;
77775;SDS011;66965;43.328;6.668;2023-04-16T19:00:41;14.50;;;2.80;;
77775;SDS011;66965;43.328;6.668;2023-04-16T19:03:06;9.43;;;2.77;;
77775;SDS011;66965;43.328;6.668;2023-04-16T19:05:33;24.90;;;4.13;;
77775;SDS011;66965;43.328;6.668;2023-04-16T19:07:58;11.17;;;2.87;;
77775;SDS011;66965;43.328;6.668;2023-04-16T19:10:24;13.90;;;3.38;;
77775;SDS011;66965;43.328;6.668;2023-04-16T19:12:49;17.47;;;3.27;;